sensor_id;sensor_type;location;lat;lon;timestamp;temperature;humidity
50067;DHT22;35952;52.524;13.340;2023-12-22T00:01:23;5.50;99.90
50067;DHT22;35952;52.524;13.340;2023-12-22T00:03:49;5.40;99.90
50067;DHT22;35952;52.524;13.340;2023-12-22T00:06:15;5.40;99.90
50067;DHT22;35952;52.524;13.340;2023-12-22T00:08:41;5.40;99.90
50067;DHT22;35952;52.524;13.340;2023-12-22T00:11:06;5.40;99.90
50067;DHT22;35952;52.524;13.340;2023-12-22T00:13:32;5.30;99.90
50067;DHT22;35952;52.524;13.340;2023-12-22T00:15:59;5.30;99.90
50067;DHT22;35952;52.524;13.340;2023-12-22T00:18:24;5.20;99.90
50067;DHT22;35952;52.524;13.340;2023-12-22T00:20:50;5.20;99.90
50067;DHT22;35952;52.524;13.340;2023-12-22T00:23:15;5.20;99.90
50067;DHT22;35952;52.524;13.340;2023-12-22T00:25:41;5.20;99.90
50067;DHT22;35952;52.524;13.340;2023-12-22T00:28:06;5.20;99.90
50067;DHT22;35952;52.524;13.340;2023-12-22T00:30:32;5.20;99.90
50067;DHT22;35952;52.524;13.340;2023-12-22T00:32:57;5.20;99.90
50067;DHT22;35952;52.524;13.340;2023-12-22T00:35:23;5.20;99.90
50067;DHT22;35952;52.524;13.340;2023-12-22T00:37:48;5.30;99.90
50067;DHT22;35952;52.524;13.340;2023-12-22T00:40:14;5.30;99.90
50067;DHT22;35952;52.524;13.340;2023-12-22T00:42:39;5.30;99.90
50067;DHT22;35952;52.524;13.340;2023-12-22T00:45:05;5.40;99.90
50067;DHT22;35952;52.524;13.340;2023-12-22T00:47:31;5.40;99.90
50067;DHT22;35952;52.524;13.340;2023-12-22T00:49:56;5.40;99.90
50067;DHT22;35952;52.524;13.340;2023-12-22T00:52:22;5.40;99.90
50067;DHT22;35952;52.524;13.340;2023-12-22T00:54:48;5.40;99.90
50067;DHT22;35952;52.524;13.340;2023-12-22T00:57:14;5.40;99.90
50067;DHT22;35952;52.524;13.340;2023-12-22T00:59:39;5.40;99.90
50067;DHT22;35952;52.524;13.340;2023-12-22T01:02:13;5.40;99.90
50067;DHT22;35952;52.524;13.340;2023-12-22T01:04:38;5.40;99.90
50067;DHT22;35952;52.524;13.340;2023-12-22T01:07:04;5.30;99.90
50067;DHT22;35952;52.524;13.340;2023-12-22T01:09:29;5.30;99.90
50067;DHT22;35952;52.524;13.340;2023-12-22T01:11:55;5.30;99.90
50067;DHT22;35952;52.524;13.340;2023-12-22T01:14:20;5.30;99.90
50067;DHT22;35952;52.524;13.340;2023-12-22T01:16:46;5.20;99.90
50067;DHT22;35952;52.524;13.340;2023-12-22T01:19:11;5.20;99.90
50067;DHT22;35952;52.524;13.340;2023-12-22T01:21:37;5.20;99.90
50067;DHT22;35952;52.524;13.340;2023-12-22T01:24:02;5.10;99.90
50067;DHT22;35952;52.524;13.340;2023-12-22T01:26:28;5.10;99.90
50067;DHT22;35952;52.524;13.340;2023-12-22T01:28:54;5.10;99.90
50067;DHT22;35952;52.524;13.340;2023-12-22T01:31:19;5.10;99.90
50067;DHT22;35952;52.524;13.340;2023-12-22T01:33:45;5.10;99.90
50067;DHT22;35952;52.524;13.340;2023-12-22T01:36:10;5.10;99.90
50067;DHT22;35952;52.524;13.340;2023-12-22T01:38:36;5.10;99.90
50067;DHT22;35952;52.524;13.340;2023-12-22T01:41:01;5.10;99.90
50067;DHT22;35952;52.524;13.340;2023-12-22T01:43:27;5.10;99.90
50067;DHT22;35952;52.524;13.340;2023-12-22T01:45:55;5.10;99.90
50067;DHT22;35952;52.524;13.340;2023-12-22T01:48:22;5.10;99.90
50067;DHT22;35952;52.524;13.340;2023-12-22T01:50:50;5.10;99.90
50067;DHT22;35952;52.524;13.340;2023-12-22T01:53:18;5.10;99.90
50067;DHT22;35952;52.524;13.340;2023-12-22T01:55:46;5.00;99.90
50067;DHT22;35952;52.524;13.340;2023-12-22T01:58:12;5.00;99.90
50067;DHT22;35952;52.524;13.340;2023-12-22T02:00:37;5.00;99.90
50067;DHT22;35952;52.524;13.340;2023-12-22T02:03:04;5.10;99.90
50067;DHT22;35952;52.524;13.340;2023-12-22T02:05:30;5.10;99.90
50067;DHT22;35952;52.524;13.340;2023-12-22T02:07:55;5.10;99.90
50067;DHT22;35952;52.524;13.340;2023-12-22T02:10:21;5.10;99.90
50067;DHT22;35952;52.524;13.340;2023-12-22T02:12:47;5.10;99.90
50067;DHT22;35952;52.524;13.340;2023-12-22T02:15:13;5.10;99.90
50067;DHT22;35952;52.524;13.340;2023-12-22T02:17:55;5.20;99.90
50067;DHT22;35952;52.524;13.340;2023-12-22T02:20:22;5.10;99.90
50067;DHT22;35952;52.524;13.340;2023-12-22T02:22:52;5.10;99.90
50067;DHT22;35952;52.524;13.340;2023-12-22T02:25:18;5.00;99.90
50067;DHT22;35952;52.524;13.340;2023-12-22T02:27:51;4.90;99.90
50067;DHT22;35952;52.524;13.340;2023-12-22T02:30:25;4.90;99.90
50067;DHT22;35952;52.524;13.340;2023-12-22T02:32:56;4.90;99.90
50067;DHT22;35952;52.524;13.340;2023-12-22T02:35:25;4.80;99.90
50067;DHT22;35952;52.524;13.340;2023-12-22T02:37:53;4.80;99.90
50067;DHT22;35952;52.524;13.340;2023-12-22T02:40:19;4.80;99.90
50067;DHT22;35952;52.524;13.340;2023-12-22T02:42:45;4.80;99.90
50067;DHT22;35952;52.524;13.340;2023-12-22T02:45:14;4.80;99.90
50067;DHT22;35952;52.524;13.340;2023-12-22T02:47:40;4.80;99.90
50067;DHT22;35952;52.524;13.340;2023-12-22T02:50:06;4.90;99.90
50067;DHT22;35952;52.524;13.340;2023-12-22T02:52:31;4.80;99.90
50067;DHT22;35952;52.524;13.340;2023-12-22T02:54:58;4.80;99.90
50067;DHT22;35952;52.524;13.340;2023-12-22T02:57:23;4.70;99.90
50067;DHT22;35952;52.524;13.340;2023-12-22T02:59:49;4.70;99.90
50067;DHT22;35952;52.524;13.340;2023-12-22T03:02:14;4.70;99.90
50067;DHT22;35952;52.524;13.340;2023-12-22T03:04:40;4.70;99.90
50067;DHT22;35952;52.524;13.340;2023-12-22T03:07:06;4.70;99.90
50067;DHT22;35952;52.524;13.340;2023-12-22T03:09:31;4.70;99.90
50067;DHT22;35952;52.524;13.340;2023-12-22T03:11:58;4.70;99.90
50067;DHT22;35952;52.524;13.340;2023-12-22T03:14:29;4.60;99.90
50067;DHT22;35952;52.524;13.340;2023-12-22T03:16:55;4.60;99.90
50067;DHT22;35952;52.524;13.340;2023-12-22T03:19:20;4.60;99.90
50067;DHT22;35952;52.524;13.340;2023-12-22T03:21:48;4.60;99.90
50067;DHT22;35952;52.524;13.340;2023-12-22T03:24:13;4.60;99.90
50067;DHT22;35952;52.524;13.340;2023-12-22T03:26:39;4.60;99.90
50067;DHT22;35952;52.524;13.340;2023-12-22T03:29:04;4.50;99.90
50067;DHT22;35952;52.524;13.340;2023-12-22T03:31:30;4.50;99.90
50067;DHT22;35952;52.524;13.340;2023-12-22T03:33:56;4.50;99.90
50067;DHT22;35952;52.524;13.340;2023-12-22T03:36:21;4.50;99.90
50067;DHT22;35952;52.524;13.340;2023-12-22T03:38:47;4.50;99.90
50067;DHT22;35952;52.524;13.340;2023-12-22T03:41:12;4.50;99.90
50067;DHT22;35952;52.524;13.340;2023-12-22T03:43:38;4.50;99.90
50067;DHT22;35952;52.524;13.340;2023-12-22T03:46:03;4.50;99.90
50067;DHT22;35952;52.524;13.340;2023-12-22T03:48:29;4.50;99.90
50067;DHT22;35952;52.524;13.340;2023-12-22T03:50:54;4.60;99.90
50067;DHT22;35952;52.524;13.340;2023-12-22T03:53:20;4.60;99.90
50067;DHT22;35952;52.524;13.340;2023-12-22T03:55:45;4.60;99.90
50067;DHT22;35952;52.524;13.340;2023-12-22T03:58:11;4.60;99.90
50067;DHT22;35952;52.524;13.340;2023-12-22T04:00:37;4.70;99.90
50067;DHT22;35952;52.524;13.340;2023-12-22T04:03:03;4.70;99.90
50067;DHT22;35952;52.524;13.340;2023-12-22T04:05:29;4.70;99.90
50067;DHT22;35952;52.524;13.340;2023-12-22T04:07:59;4.80;99.90
50067;DHT22;35952;52.524;13.340;2023-12-22T04:10:24;4.80;99.90
50067;DHT22;35952;52.524;13.340;2023-12-22T04:12:50;4.90;99.90
50067;DHT22;35952;52.524;13.340;2023-12-22T04:15:15;4.80;99.90
50067;DHT22;35952;52.524;13.340;2023-12-22T04:17:41;4.70;99.90
50067;DHT22;35952;52.524;13.340;2023-12-22T04:20:07;4.60;99.90
50067;DHT22;35952;52.524;13.340;2023-12-22T04:22:33;4.60;99.90
50067;DHT22;35952;52.524;13.340;2023-12-22T04:24:58;4.60;99.90
50067;DHT22;35952;52.524;13.340;2023-12-22T04:27:24;4.50;99.90
50067;DHT22;35952;52.524;13.340;2023-12-22T04:29:50;4.40;99.90
50067;DHT22;35952;52.524;13.340;2023-12-22T04:32:15;4.30;99.90
50067;DHT22;35952;52.524;13.340;2023-12-22T04:34:41;4.30;99.90
50067;DHT22;35952;52.524;13.340;2023-12-22T04:37:06;4.20;99.90
50067;DHT22;35952;52.524;13.340;2023-12-22T04:39:31;4.20;99.90
50067;DHT22;35952;52.524;13.340;2023-12-22T04:41:57;4.20;99.90
50067;DHT22;35952;52.524;13.340;2023-12-22T04:44:23;4.20;99.90
50067;DHT22;35952;52.524;13.340;2023-12-22T04:46:49;4.30;99.90
50067;DHT22;35952;52.524;13.340;2023-12-22T04:49:14;4.30;99.90
50067;DHT22;35952;52.524;13.340;2023-12-22T04:51:40;4.30;99.90
50067;DHT22;35952;52.524;13.340;2023-12-22T04:54:05;4.30;99.90
50067;DHT22;35952;52.524;13.340;2023-12-22T04:56:31;4.30;99.90
50067;DHT22;35952;52.524;13.340;2023-12-22T04:58:56;4.30;99.90
50067;DHT22;35952;52.524;13.340;2023-12-22T05:01:22;4.30;99.90
50067;DHT22;35952;52.524;13.340;2023-12-22T05:03:47;4.30;99.90
50067;DHT22;35952;52.524;13.340;2023-12-22T05:06:13;4.20;99.90
50067;DHT22;35952;52.524;13.340;2023-12-22T05:08:38;4.00;99.90
50067;DHT22;35952;52.524;13.340;2023-12-22T05:11:04;3.90;99.90
50067;DHT22;35952;52.524;13.340;2023-12-22T05:13:30;3.80;99.90
50067;DHT22;35952;52.524;13.340;2023-12-22T05:15:55;3.70;99.90
50067;DHT22;35952;52.524;13.340;2023-12-22T05:18:21;3.60;99.90
50067;DHT22;35952;52.524;13.340;2023-12-22T05:20:46;3.50;99.90
50067;DHT22;35952;52.524;13.340;2023-12-22T05:23:12;3.50;99.90
50067;DHT22;35952;52.524;13.340;2023-12-22T05:25:38;3.50;99.90
50067;DHT22;35952;52.524;13.340;2023-12-22T05:28:03;3.50;99.90
50067;DHT22;35952;52.524;13.340;2023-12-22T05:30:29;3.50;99.90
50067;DHT22;35952;52.524;13.340;2023-12-22T05:32:54;3.50;99.90
50067;DHT22;35952;52.524;13.340;2023-12-22T05:35:20;3.50;99.90
50067;DHT22;35952;52.524;13.340;2023-12-22T05:37:46;3.50;99.90
50067;DHT22;35952;52.524;13.340;2023-12-22T05:40:13;3.50;99.90
50067;DHT22;35952;52.524;13.340;2023-12-22T05:42:39;3.50;99.90
50067;DHT22;35952;52.524;13.340;2023-12-22T05:45:05;3.50;99.90
50067;DHT22;35952;52.524;13.340;2023-12-22T05:47:32;3.50;99.90
50067;DHT22;35952;52.524;13.340;2023-12-22T05:49:57;3.60;99.90
50067;DHT22;35952;52.524;13.340;2023-12-22T05:52:23;3.50;99.90
50067;DHT22;35952;52.524;13.340;2023-12-22T05:54:48;3.50;99.90
50067;DHT22;35952;52.524;13.340;2023-12-22T05:57:16;3.60;99.90
50067;DHT22;35952;52.524;13.340;2023-12-22T05:59:42;3.50;99.90
50067;DHT22;35952;52.524;13.340;2023-12-22T06:02:07;3.60;99.90
50067;DHT22;35952;52.524;13.340;2023-12-22T06:04:33;3.50;99.90
50067;DHT22;35952;52.524;13.340;2023-12-22T06:07:00;3.60;99.90
50067;DHT22;35952;52.524;13.340;2023-12-22T06:09:25;3.70;99.90
50067;DHT22;35952;52.524;13.340;2023-12-22T06:11:51;3.70;99.90
50067;DHT22;35952;52.524;13.340;2023-12-22T06:14:16;3.70;99.90
50067;DHT22;35952;52.524;13.340;2023-12-22T06:16:42;3.70;99.90
50067;DHT22;35952;52.524;13.340;2023-12-22T06:19:08;3.70;99.90
50067;DHT22;35952;52.524;13.340;2023-12-22T06:21:37;3.70;99.90
50067;DHT22;35952;52.524;13.340;2023-12-22T06:24:05;3.70;99.90
50067;DHT22;35952;52.524;13.340;2023-12-22T06:29:52;3.70;99.90
50067;DHT22;35952;52.524;13.340;2023-12-22T06:32:17;3.70;99.90
50067;DHT22;35952;52.524;13.340;2023-12-22T06:34:43;3.70;99.90
50067;DHT22;35952;52.524;13.340;2023-12-22T06:37:08;3.70;99.90
50067;DHT22;35952;52.524;13.340;2023-12-22T06:39:36;3.70;99.90
50067;DHT22;35952;52.524;13.340;2023-12-22T06:42:01;3.80;99.90
50067;DHT22;35952;52.524;13.340;2023-12-22T06:44:27;3.90;99.90
50067;DHT22;35952;52.524;13.340;2023-12-22T06:46:52;3.80;99.90
50067;DHT22;35952;52.524;13.340;2023-12-22T06:49:18;3.60;99.90
50067;DHT22;35952;52.524;13.340;2023-12-22T06:51:43;3.60;99.90
50067;DHT22;35952;52.524;13.340;2023-12-22T06:54:09;3.50;99.90
50067;DHT22;35952;52.524;13.340;2023-12-22T06:56:35;3.40;99.90
50067;DHT22;35952;52.524;13.340;2023-12-22T06:59:00;3.40;99.90
50067;DHT22;35952;52.524;13.340;2023-12-22T07:01:27;3.30;99.90
50067;DHT22;35952;52.524;13.340;2023-12-22T07:03:52;3.40;99.90
50067;DHT22;35952;52.524;13.340;2023-12-22T07:06:22;3.40;99.90
50067;DHT22;35952;52.524;13.340;2023-12-22T07:11:23;3.50;99.90
50067;DHT22;35952;52.524;13.340;2023-12-22T07:13:48;3.50;99.90
50067;DHT22;35952;52.524;13.340;2023-12-22T07:16:15;3.60;99.90
50067;DHT22;35952;52.524;13.340;2023-12-22T07:18:40;3.60;99.90
50067;DHT22;35952;52.524;13.340;2023-12-22T07:21:06;3.70;99.90
50067;DHT22;35952;52.524;13.340;2023-12-22T07:23:32;3.70;99.90
50067;DHT22;35952;52.524;13.340;2023-12-22T07:25:58;3.70;99.90
50067;DHT22;35952;52.524;13.340;2023-12-22T07:28:23;3.60;99.90
50067;DHT22;35952;52.524;13.340;2023-12-22T07:30:49;3.70;99.90
50067;DHT22;35952;52.524;13.340;2023-12-22T07:33:14;3.70;99.90
50067;DHT22;35952;52.524;13.340;2023-12-22T07:35:40;3.70;99.90
50067;DHT22;35952;52.524;13.340;2023-12-22T07:38:05;3.70;99.90
50067;DHT22;35952;52.524;13.340;2023-12-22T07:40:31;3.80;99.90
50067;DHT22;35952;52.524;13.340;2023-12-22T07:42:57;3.90;99.90
50067;DHT22;35952;52.524;13.340;2023-12-22T07:45:22;3.90;99.90
50067;DHT22;35952;52.524;13.340;2023-12-22T07:47:48;4.00;99.90
50067;DHT22;35952;52.524;13.340;2023-12-22T07:50:14;4.00;99.90
50067;DHT22;35952;52.524;13.340;2023-12-22T07:52:39;4.00;99.90
50067;DHT22;35952;52.524;13.340;2023-12-22T07:55:08;4.10;99.90
50067;DHT22;35952;52.524;13.340;2023-12-22T07:57:36;4.20;99.90
50067;DHT22;35952;52.524;13.340;2023-12-22T08:00:02;4.20;99.90
50067;DHT22;35952;52.524;13.340;2023-12-22T08:02:28;4.20;99.90
50067;DHT22;35952;52.524;13.340;2023-12-22T08:04:54;4.20;99.90
50067;DHT22;35952;52.524;13.340;2023-12-22T08:07:19;4.20;99.90
50067;DHT22;35952;52.524;13.340;2023-12-22T08:09:45;4.20;99.90
50067;DHT22;35952;52.524;13.340;2023-12-22T08:12:10;4.10;99.90
50067;DHT22;35952;52.524;13.340;2023-12-22T08:14:36;4.10;99.90
50067;DHT22;35952;52.524;13.340;2023-12-22T08:17:01;4.00;99.90
50067;DHT22;35952;52.524;13.340;2023-12-22T08:19:27;4.00;99.90
50067;DHT22;35952;52.524;13.340;2023-12-22T08:21:53;3.90;99.90
50067;DHT22;35952;52.524;13.340;2023-12-22T08:24:20;3.90;99.90
50067;DHT22;35952;52.524;13.340;2023-12-22T08:26:45;3.90;99.90
50067;DHT22;35952;52.524;13.340;2023-12-22T08:29:11;3.90;99.90
50067;DHT22;35952;52.524;13.340;2023-12-22T08:31:36;3.90;99.90
50067;DHT22;35952;52.524;13.340;2023-12-22T08:34:02;3.90;99.90
50067;DHT22;35952;52.524;13.340;2023-12-22T08:36:27;3.90;99.90
50067;DHT22;35952;52.524;13.340;2023-12-22T08:38:52;3.80;99.90
50067;DHT22;35952;52.524;13.340;2023-12-22T08:41:18;3.80;99.90
50067;DHT22;35952;52.524;13.340;2023-12-22T08:43:44;3.80;99.90
50067;DHT22;35952;52.524;13.340;2023-12-22T08:46:09;3.70;99.90
50067;DHT22;35952;52.524;13.340;2023-12-22T08:48:35;3.70;99.90
50067;DHT22;35952;52.524;13.340;2023-12-22T08:51:01;3.70;99.90
50067;DHT22;35952;52.524;13.340;2023-12-22T08:53:26;3.70;99.90
50067;DHT22;35952;52.524;13.340;2023-12-22T08:55:55;3.70;99.90
50067;DHT22;35952;52.524;13.340;2023-12-22T08:58:21;3.80;99.90
50067;DHT22;35952;52.524;13.340;2023-12-22T09:00:47;3.90;99.90
50067;DHT22;35952;52.524;13.340;2023-12-22T09:03:12;4.00;99.90
50067;DHT22;35952;52.524;13.340;2023-12-22T09:05:38;4.00;99.90
50067;DHT22;35952;52.524;13.340;2023-12-22T09:08:04;4.10;99.90
50067;DHT22;35952;52.524;13.340;2023-12-22T09:10:31;4.10;99.90
50067;DHT22;35952;52.524;13.340;2023-12-22T09:12:57;4.10;99.90
50067;DHT22;35952;52.524;13.340;2023-12-22T09:15:23;4.10;99.90
50067;DHT22;35952;52.524;13.340;2023-12-22T09:17:49;4.10;99.90
50067;DHT22;35952;52.524;13.340;2023-12-22T09:20:15;4.20;99.90
50067;DHT22;35952;52.524;13.340;2023-12-22T09:22:40;4.30;99.90
50067;DHT22;35952;52.524;13.340;2023-12-22T09:25:06;4.30;99.90
50067;DHT22;35952;52.524;13.340;2023-12-22T09:27:31;4.40;99.90
50067;DHT22;35952;52.524;13.340;2023-12-22T09:29:57;4.50;99.90
50067;DHT22;35952;52.524;13.340;2023-12-22T09:32:22;4.50;99.90
50067;DHT22;35952;52.524;13.340;2023-12-22T09:34:48;4.50;99.90
50067;DHT22;35952;52.524;13.340;2023-12-22T09:37:14;4.50;99.90
50067;DHT22;35952;52.524;13.340;2023-12-22T09:39:39;4.60;99.90
50067;DHT22;35952;52.524;13.340;2023-12-22T09:42:05;4.60;99.90
50067;DHT22;35952;52.524;13.340;2023-12-22T09:44:32;4.70;99.90
50067;DHT22;35952;52.524;13.340;2023-12-22T09:47:04;4.70;99.90
50067;DHT22;35952;52.524;13.340;2023-12-22T09:49:30;4.80;99.90
50067;DHT22;35952;52.524;13.340;2023-12-22T09:51:57;4.60;99.90
50067;DHT22;35952;52.524;13.340;2023-12-22T09:54:22;4.70;99.90
50067;DHT22;35952;52.524;13.340;2023-12-22T09:56:50;4.70;99.90
50067;DHT22;35952;52.524;13.340;2023-12-22T09:59:17;4.70;99.90
50067;DHT22;35952;52.524;13.340;2023-12-22T10:01:45;4.70;99.90
50067;DHT22;35952;52.524;13.340;2023-12-22T10:04:13;4.60;99.90
50067;DHT22;35952;52.524;13.340;2023-12-22T10:06:38;4.60;99.90
50067;DHT22;35952;52.524;13.340;2023-12-22T10:09:05;4.70;99.90
50067;DHT22;35952;52.524;13.340;2023-12-22T10:11:32;4.80;99.90
50067;DHT22;35952;52.524;13.340;2023-12-22T10:14:00;4.80;99.90
50067;DHT22;35952;52.524;13.340;2023-12-22T10:16:27;4.90;99.90
50067;DHT22;35952;52.524;13.340;2023-12-22T10:18:53;4.90;99.90
50067;DHT22;35952;52.524;13.340;2023-12-22T10:21:19;4.90;99.90
50067;DHT22;35952;52.524;13.340;2023-12-22T10:23:44;4.80;99.90
50067;DHT22;35952;52.524;13.340;2023-12-22T10:26:13;4.80;99.90
50067;DHT22;35952;52.524;13.340;2023-12-22T10:28:38;4.80;99.90
50067;DHT22;35952;52.524;13.340;2023-12-22T10:31:09;4.80;99.90
50067;DHT22;35952;52.524;13.340;2023-12-22T10:33:34;4.90;99.90
50067;DHT22;35952;52.524;13.340;2023-12-22T10:36:00;5.00;99.90
50067;DHT22;35952;52.524;13.340;2023-12-22T10:38:35;5.00;99.90
50067;DHT22;35952;52.524;13.340;2023-12-22T10:41:02;5.00;99.90
50067;DHT22;35952;52.524;13.340;2023-12-22T10:43:27;5.10;99.90
50067;DHT22;35952;52.524;13.340;2023-12-22T10:45:53;5.00;99.90
50067;DHT22;35952;52.524;13.340;2023-12-22T10:48:19;5.00;99.90
50067;DHT22;35952;52.524;13.340;2023-12-22T10:50:44;5.00;99.90
50067;DHT22;35952;52.524;13.340;2023-12-22T10:53:12;5.00;99.90
50067;DHT22;35952;52.524;13.340;2023-12-22T10:55:38;5.00;99.90
50067;DHT22;35952;52.524;13.340;2023-12-22T10:58:05;5.10;99.90
50067;DHT22;35952;52.524;13.340;2023-12-22T11:00:32;5.00;99.90
50067;DHT22;35952;52.524;13.340;2023-12-22T11:03:01;5.10;99.90
50067;DHT22;35952;52.524;13.340;2023-12-22T11:05:29;5.10;99.90
50067;DHT22;35952;52.524;13.340;2023-12-22T11:07:59;5.10;99.90
50067;DHT22;35952;52.524;13.340;2023-12-22T11:10:28;5.00;99.90
50067;DHT22;35952;52.524;13.340;2023-12-22T11:12:57;5.10;99.90
50067;DHT22;35952;52.524;13.340;2023-12-22T11:15:24;5.10;99.90
50067;DHT22;35952;52.524;13.340;2023-12-22T11:17:52;5.10;99.90
50067;DHT22;35952;52.524;13.340;2023-12-22T11:20:18;5.10;99.90
50067;DHT22;35952;52.524;13.340;2023-12-22T11:22:44;5.10;99.90
50067;DHT22;35952;52.524;13.340;2023-12-22T11:25:10;5.00;99.90
50067;DHT22;35952;52.524;13.340;2023-12-22T11:27:37;5.10;99.90
50067;DHT22;35952;52.524;13.340;2023-12-22T11:30:04;5.10;99.90
50067;DHT22;35952;52.524;13.340;2023-12-22T11:32:33;5.10;99.90
50067;DHT22;35952;52.524;13.340;2023-12-22T11:34:59;5.10;99.90
50067;DHT22;35952;52.524;13.340;2023-12-22T11:37:25;5.10;99.90
50067;DHT22;35952;52.524;13.340;2023-12-22T11:39:51;5.10;99.90
50067;DHT22;35952;52.524;13.340;2023-12-22T11:42:21;5.10;99.90
50067;DHT22;35952;52.524;13.340;2023-12-22T11:44:48;5.20;99.90
50067;DHT22;35952;52.524;13.340;2023-12-22T11:47:14;5.20;99.90
50067;DHT22;35952;52.524;13.340;2023-12-22T11:49:40;5.30;99.90
50067;DHT22;35952;52.524;13.340;2023-12-22T11:52:24;5.40;99.90
50067;DHT22;35952;52.524;13.340;2023-12-22T11:54:51;5.40;99.90
50067;DHT22;35952;52.524;13.340;2023-12-22T11:57:38;5.50;99.90
50067;DHT22;35952;52.524;13.340;2023-12-22T12:02:37;5.40;99.90
50067;DHT22;35952;52.524;13.340;2023-12-22T12:05:07;5.40;99.90
50067;DHT22;35952;52.524;13.340;2023-12-22T12:07:43;5.40;99.90
50067;DHT22;35952;52.524;13.340;2023-12-22T12:10:36;5.40;99.90
50067;DHT22;35952;52.524;13.340;2023-12-22T12:13:08;5.30;99.90
50067;DHT22;35952;52.524;13.340;2023-12-22T12:15:34;5.30;99.90
50067;DHT22;35952;52.524;13.340;2023-12-22T12:18:03;5.30;99.90
50067;DHT22;35952;52.524;13.340;2023-12-22T12:20:30;5.40;99.90
50067;DHT22;35952;52.524;13.340;2023-12-22T12:22:55;5.50;99.90
50067;DHT22;35952;52.524;13.340;2023-12-22T12:25:23;5.40;99.90
50067;DHT22;35952;52.524;13.340;2023-12-22T12:28:07;5.40;99.90
50067;DHT22;35952;52.524;13.340;2023-12-22T12:30:37;5.40;99.90
50067;DHT22;35952;52.524;13.340;2023-12-22T12:33:07;5.30;99.90
50067;DHT22;35952;52.524;13.340;2023-12-22T12:35:33;5.40;99.90
50067;DHT22;35952;52.524;13.340;2023-12-22T12:38:00;5.40;99.90
50067;DHT22;35952;52.524;13.340;2023-12-22T12:40:27;5.40;99.90
50067;DHT22;35952;52.524;13.340;2023-12-22T12:43:01;5.40;99.90
50067;DHT22;35952;52.524;13.340;2023-12-22T12:45:27;5.30;99.90
50067;DHT22;35952;52.524;13.340;2023-12-22T12:48:00;5.30;99.90
50067;DHT22;35952;52.524;13.340;2023-12-22T12:50:27;5.30;99.90
50067;DHT22;35952;52.524;13.340;2023-12-22T12:52:54;5.20;99.90
50067;DHT22;35952;52.524;13.340;2023-12-22T12:55:21;5.30;99.90
50067;DHT22;35952;52.524;13.340;2023-12-22T12:57:54;5.40;99.90
50067;DHT22;35952;52.524;13.340;2023-12-22T13:02:59;5.50;99.90
50067;DHT22;35952;52.524;13.340;2023-12-22T13:05:25;5.50;99.90
50067;DHT22;35952;52.524;13.340;2023-12-22T13:07:51;5.50;99.90
50067;DHT22;35952;52.524;13.340;2023-12-22T13:10:24;5.50;99.90
50067;DHT22;35952;52.524;13.340;2023-12-22T13:12:51;5.50;99.90
50067;DHT22;35952;52.524;13.340;2023-12-22T13:15:19;5.40;99.90
50067;DHT22;35952;52.524;13.340;2023-12-22T13:17:46;5.40;99.90
50067;DHT22;35952;52.524;13.340;2023-12-22T13:20:11;5.40;99.90
50067;DHT22;35952;52.524;13.340;2023-12-22T13:22:38;5.40;99.90
50067;DHT22;35952;52.524;13.340;2023-12-22T13:25:04;5.30;99.90
50067;DHT22;35952;52.524;13.340;2023-12-22T13:27:29;5.40;99.90
50067;DHT22;35952;52.524;13.340;2023-12-22T13:29:55;5.40;99.90
50067;DHT22;35952;52.524;13.340;2023-12-22T13:32:22;5.40;99.90
50067;DHT22;35952;52.524;13.340;2023-12-22T13:34:52;5.40;99.90
50067;DHT22;35952;52.524;13.340;2023-12-22T13:37:18;5.30;99.90
50067;DHT22;35952;52.524;13.340;2023-12-22T13:39:45;5.40;99.90
50067;DHT22;35952;52.524;13.340;2023-12-22T13:42:15;5.40;99.90
50067;DHT22;35952;52.524;13.340;2023-12-22T13:44:45;5.40;99.90
50067;DHT22;35952;52.524;13.340;2023-12-22T13:47:15;5.50;99.90
50067;DHT22;35952;52.524;13.340;2023-12-22T13:49:42;5.50;99.90
50067;DHT22;35952;52.524;13.340;2023-12-22T13:52:07;5.50;99.90
50067;DHT22;35952;52.524;13.340;2023-12-22T13:54:33;5.50;99.90
50067;DHT22;35952;52.524;13.340;2023-12-22T13:57:00;5.50;99.90
50067;DHT22;35952;52.524;13.340;2023-12-22T13:59:34;5.50;99.90
50067;DHT22;35952;52.524;13.340;2023-12-22T14:02:00;5.40;99.90
50067;DHT22;35952;52.524;13.340;2023-12-22T14:04:29;5.40;99.90
50067;DHT22;35952;52.524;13.340;2023-12-22T14:06:54;5.30;99.90
50067;DHT22;35952;52.524;13.340;2023-12-22T14:09:20;5.20;99.90
50067;DHT22;35952;52.524;13.340;2023-12-22T14:11:49;5.30;99.90
50067;DHT22;35952;52.524;13.340;2023-12-22T14:14:15;5.20;99.90
50067;DHT22;35952;52.524;13.340;2023-12-22T14:16:42;5.10;99.90
50067;DHT22;35952;52.524;13.340;2023-12-22T14:19:07;5.10;99.90
50067;DHT22;35952;52.524;13.340;2023-12-22T14:21:33;5.10;99.90
50067;DHT22;35952;52.524;13.340;2023-12-22T14:23:58;5.00;99.90
50067;DHT22;35952;52.524;13.340;2023-12-22T14:26:24;5.00;99.90
50067;DHT22;35952;52.524;13.340;2023-12-22T14:28:49;4.90;99.90
50067;DHT22;35952;52.524;13.340;2023-12-22T14:31:17;4.80;99.90
50067;DHT22;35952;52.524;13.340;2023-12-22T14:33:42;4.70;99.90
50067;DHT22;35952;52.524;13.340;2023-12-22T14:36:07;4.70;99.90
50067;DHT22;35952;52.524;13.340;2023-12-22T14:38:33;4.70;99.90
50067;DHT22;35952;52.524;13.340;2023-12-22T14:40:58;4.70;99.90
50067;DHT22;35952;52.524;13.340;2023-12-22T14:43:24;4.70;99.90
50067;DHT22;35952;52.524;13.340;2023-12-22T14:45:50;4.60;99.90
50067;DHT22;35952;52.524;13.340;2023-12-22T14:48:15;4.50;99.90
50067;DHT22;35952;52.524;13.340;2023-12-22T14:50:40;4.40;99.90
50067;DHT22;35952;52.524;13.340;2023-12-22T14:53:06;4.40;99.90
50067;DHT22;35952;52.524;13.340;2023-12-22T14:55:32;4.40;99.90
50067;DHT22;35952;52.524;13.340;2023-12-22T14:57:58;4.40;99.90
50067;DHT22;35952;52.524;13.340;2023-12-22T15:00:23;4.40;99.90
50067;DHT22;35952;52.524;13.340;2023-12-22T15:02:49;4.40;99.90
50067;DHT22;35952;52.524;13.340;2023-12-22T15:05:14;4.40;99.90
50067;DHT22;35952;52.524;13.340;2023-12-22T15:07:40;4.40;99.90
50067;DHT22;35952;52.524;13.340;2023-12-22T15:10:06;4.40;99.90
50067;DHT22;35952;52.524;13.340;2023-12-22T15:12:32;4.40;99.90
50067;DHT22;35952;52.524;13.340;2023-12-22T15:15:01;4.40;99.90
50067;DHT22;35952;52.524;13.340;2023-12-22T15:17:28;4.40;99.90
50067;DHT22;35952;52.524;13.340;2023-12-22T15:19:53;4.40;99.90
50067;DHT22;35952;52.524;13.340;2023-12-22T15:22:19;4.40;99.90
50067;DHT22;35952;52.524;13.340;2023-12-22T15:24:44;4.50;99.90
50067;DHT22;35952;52.524;13.340;2023-12-22T15:27:11;4.40;99.90
50067;DHT22;35952;52.524;13.340;2023-12-22T15:29:37;4.50;99.90
50067;DHT22;35952;52.524;13.340;2023-12-22T15:32:02;4.40;99.90
50067;DHT22;35952;52.524;13.340;2023-12-22T15:34:28;4.40;99.90
50067;DHT22;35952;52.524;13.340;2023-12-22T15:36:54;4.40;99.90